sensor_id;sensor_type;location;lat;lon;timestamp;temperature;humidity
34815;DHT22;21030;53.912;15.214;2023-02-11T00:00:41;22.10;29.10
34815;DHT22;21030;53.912;15.214;2023-02-11T00:03:08;22.50;29.20
34815;DHT22;21030;53.912;15.214;2023-02-11T00:05:36;22.20;29.00
34815;DHT22;21030;53.912;15.214;2023-02-11T00:08:03;22.30;29.00
34815;DHT22;21030;53.912;15.214;2023-02-11T00:10:30;23.60;28.00
34815;DHT22;21030;53.912;15.214;2023-02-11T00:12:58;23.10;27.70
34815;DHT22;21030;53.912;15.214;2023-02-11T00:15:25;22.60;28.30
34815;DHT22;21030;53.912;15.214;2023-02-11T00:17:52;21.80;28.90
34815;DHT22;21030;53.912;15.214;2023-02-11T00:20:19;22.30;29.30
34815;DHT22;21030;53.912;15.214;2023-02-11T00:22:46;23.00;28.20
34815;DHT22;21030;53.912;15.214;2023-02-11T00:25:13;22.30;28.60
34815;DHT22;21030;53.912;15.214;2023-02-11T00:27:40;23.00;28.60
34815;DHT22;21030;53.912;15.214;2023-02-11T00:30:07;22.30;28.60
34815;DHT22;21030;53.912;15.214;2023-02-11T00:32:36;22.00;29.00
34815;DHT22;21030;53.912;15.214;2023-02-11T00:35:03;22.40;28.90
34815;DHT22;21030;53.912;15.214;2023-02-11T00:37:30;23.10;28.60
34815;DHT22;21030;53.912;15.214;2023-02-11T00:39:57;22.80;28.10
34815;DHT22;21030;53.912;15.214;2023-02-11T00:42:24;22.30;28.20
34815;DHT22;21030;53.912;15.214;2023-02-11T00:44:51;21.90;29.10
34815;DHT22;21030;53.912;15.214;2023-02-11T00:47:18;22.50;29.00
34815;DHT22;21030;53.912;15.214;2023-02-11T00:49:45;23.30;28.10
34815;DHT22;21030;53.912;15.214;2023-02-11T00:52:12;23.20;27.80
34815;DHT22;21030;53.912;15.214;2023-02-11T00:54:40;23.80;27.50
34815;DHT22;21030;53.912;15.214;2023-02-11T00:57:07;23.00;27.70
34815;DHT22;21030;53.912;15.214;2023-02-11T00:59:34;23.20;28.10
34815;DHT22;21030;53.912;15.214;2023-02-11T01:02:01;23.50;27.50
34815;DHT22;21030;53.912;15.214;2023-02-11T01:04:28;23.30;27.60
34815;DHT22;21030;53.912;15.214;2023-02-11T01:06:55;23.40;27.50
34815;DHT22;21030;53.912;15.214;2023-02-11T01:09:22;23.70;27.50
34815;DHT22;21030;53.912;15.214;2023-02-11T01:11:49;23.20;27.50
34815;DHT22;21030;53.912;15.214;2023-02-11T01:14:16;22.90;27.90
34815;DHT22;21030;53.912;15.214;2023-02-11T01:16:43;23.10;27.90
34815;DHT22;21030;53.912;15.214;2023-02-11T01:19:11;23.40;27.90
34815;DHT22;21030;53.912;15.214;2023-02-11T01:21:38;23.50;27.40
34815;DHT22;21030;53.912;15.214;2023-02-11T01:24:05;23.20;27.90
34815;DHT22;21030;53.912;15.214;2023-02-11T01:26:32;23.00;28.50
34815;DHT22;21030;53.912;15.214;2023-02-11T01:28:59;23.40;27.80
34815;DHT22;21030;53.912;15.214;2023-02-11T01:31:27;24.20;27.40
34815;DHT22;21030;53.912;15.214;2023-02-11T01:33:56;24.40;27.20
34815;DHT22;21030;53.912;15.214;2023-02-11T01:36:23;23.90;27.20
34815;DHT22;21030;53.912;15.214;2023-02-11T01:38:50;23.70;27.30
34815;DHT22;21030;53.912;15.214;2023-02-11T01:41:17;23.20;28.10
34815;DHT22;21030;53.912;15.214;2023-02-11T01:43:47;23.50;28.00
34815;DHT22;21030;53.912;15.214;2023-02-11T01:46:33;23.00;28.10
34815;DHT22;21030;53.912;15.214;2023-02-11T01:49:05;23.20;28.20
34815;DHT22;21030;53.912;15.214;2023-02-11T01:51:43;23.20;28.30
34815;DHT22;21030;53.912;15.214;2023-02-11T01:54:15;23.70;28.40
34815;DHT22;21030;53.912;15.214;2023-02-11T01:57:04;24.20;27.60
34815;DHT22;21030;53.912;15.214;2023-02-11T02:00:13;23.40;28.20
34815;DHT22;21030;53.912;15.214;2023-02-11T02:02:55;23.40;28.30
34815;DHT22;21030;53.912;15.214;2023-02-11T02:05:41;23.20;28.40
34815;DHT22;21030;53.912;15.214;2023-02-11T02:10:58;24.50;27.40
34815;DHT22;21030;53.912;15.214;2023-02-11T02:13:29;23.00;28.60
34815;DHT22;21030;53.912;15.214;2023-02-11T02:16:03;23.00;29.10
34815;DHT22;21030;53.912;15.214;2023-02-11T02:18:51;23.50;28.50
34815;DHT22;21030;53.912;15.214;2023-02-11T02:40:24;21.50;30.90
34815;DHT22;21030;53.912;15.214;2023-02-11T02:42:54;21.60;31.10
34815;DHT22;21030;53.912;15.214;2023-02-11T02:45:21;21.10;31.80
34815;DHT22;21030;53.912;15.214;2023-02-11T02:47:49;20.60;32.80
34815;DHT22;21030;53.912;15.214;2023-02-11T02:50:20;20.60;33.70
34815;DHT22;21030;53.912;15.214;2023-02-11T03:03:44;20.90;33.10
34815;DHT22;21030;53.912;15.214;2023-02-11T03:09:06;21.30;32.50
34815;DHT22;21030;53.912;15.214;2023-02-11T03:11:37;21.40;32.90
34815;DHT22;21030;53.912;15.214;2023-02-11T03:14:10;20.90;33.00
34815;DHT22;21030;53.912;15.214;2023-02-11T03:16:38;20.40;33.90
34815;DHT22;21030;53.912;15.214;2023-02-11T03:19:13;21.10;33.40
34815;DHT22;21030;53.912;15.214;2023-02-11T03:21:42;22.00;32.30
34815;DHT22;21030;53.912;15.214;2023-02-11T03:24:15;22.30;31.50
34815;DHT22;21030;53.912;15.214;2023-02-11T03:26:53;21.40;32.30
34815;DHT22;21030;53.912;15.214;2023-02-11T03:31:58;21.50;32.90
34815;DHT22;21030;53.912;15.214;2023-02-11T03:35:15;21.90;32.80
34815;DHT22;21030;53.912;15.214;2023-02-11T03:38:04;21.60;32.90
34815;DHT22;21030;53.912;15.214;2023-02-11T03:40:38;22.20;31.90
34815;DHT22;21030;53.912;15.214;2023-02-11T03:43:19;21.20;33.30
34815;DHT22;21030;53.912;15.214;2023-02-11T03:45:50;20.60;34.40
34815;DHT22;21030;53.912;15.214;2023-02-11T03:48:23;20.70;35.00
34815;DHT22;21030;53.912;15.214;2023-02-11T03:50:52;20.90;35.00
34815;DHT22;21030;53.912;15.214;2023-02-11T03:53:24;21.60;34.20
34815;DHT22;21030;53.912;15.214;2023-02-11T03:55:53;21.50;33.70
34815;DHT22;21030;53.912;15.214;2023-02-11T03:58:22;22.40;33.20
34815;DHT22;21030;53.912;15.214;2023-02-11T04:00:49;22.40;32.70
34815;DHT22;21030;53.912;15.214;2023-02-11T04:03:16;22.20;32.70
34815;DHT22;21030;53.912;15.214;2023-02-11T04:05:44;21.40;34.40
34815;DHT22;21030;53.912;15.214;2023-02-11T04:08:11;20.50;35.80
34815;DHT22;21030;53.912;15.214;2023-02-11T04:10:39;20.30;36.80
34815;DHT22;21030;53.912;15.214;2023-02-11T04:13:06;21.00;36.70
34815;DHT22;21030;53.912;15.214;2023-02-11T04:15:33;21.70;35.70
34815;DHT22;21030;53.912;15.214;2023-02-11T04:18:00;21.10;35.40
34815;DHT22;21030;53.912;15.214;2023-02-11T04:20:32;21.20;36.00
34815;DHT22;21030;53.912;15.214;2023-02-11T04:23:00;20.60;36.60
34815;DHT22;21030;53.912;15.214;2023-02-11T04:25:27;21.40;36.30
34815;DHT22;21030;53.912;15.214;2023-02-11T04:27:54;21.90;34.90
34815;DHT22;21030;53.912;15.214;2023-02-11T04:30:22;22.20;33.70
34815;DHT22;21030;53.912;15.214;2023-02-11T04:32:49;21.80;35.00
34815;DHT22;21030;53.912;15.214;2023-02-11T04:35:16;22.00;35.00
34815;DHT22;21030;53.912;15.214;2023-02-11T04:37:43;21.50;34.70
34815;DHT22;21030;53.912;15.214;2023-02-11T04:40:10;22.20;35.10
34815;DHT22;21030;53.912;15.214;2023-02-11T04:42:38;22.10;34.40
34815;DHT22;21030;53.912;15.214;2023-02-11T04:45:05;22.00;34.20
34815;DHT22;21030;53.912;15.214;2023-02-11T04:47:33;20.90;35.70
34815;DHT22;21030;53.912;15.214;2023-02-11T04:50:00;20.90;36.20
34815;DHT22;21030;53.912;15.214;2023-02-11T04:52:27;20.70;36.40
34815;DHT22;21030;53.912;15.214;2023-02-11T04:54:54;20.30;37.40
34815;DHT22;21030;53.912;15.214;2023-02-11T04:57:22;21.00;36.60
34815;DHT22;21030;53.912;15.214;2023-02-11T04:59:49;20.70;36.70
34815;DHT22;21030;53.912;15.214;2023-02-11T05:02:16;21.00;36.40
34815;DHT22;21030;53.912;15.214;2023-02-11T05:04:43;21.70;36.20
34815;DHT22;21030;53.912;15.214;2023-02-11T05:07:10;22.60;33.70
34815;DHT22;21030;53.912;15.214;2023-02-11T05:09:37;22.40;33.40
34815;DHT22;21030;53.912;15.214;2023-02-11T05:12:04;20.90;35.80
34815;DHT22;21030;53.912;15.214;2023-02-11T05:14:32;21.10;36.20
34815;DHT22;21030;53.912;15.214;2023-02-11T05:16:59;21.30;36.00
34815;DHT22;21030;53.912;15.214;2023-02-11T05:19:29;20.90;36.00
34815;DHT22;21030;53.912;15.214;2023-02-11T05:21:57;21.10;36.20
34815;DHT22;21030;53.912;15.214;2023-02-11T05:24:30;20.30;36.80
34815;DHT22;21030;53.912;15.214;2023-02-11T05:26:58;20.70;37.20
34815;DHT22;21030;53.912;15.214;2023-02-11T05:29:26;20.20;37.90
34815;DHT22;21030;53.912;15.214;2023-02-11T05:31:53;19.50;39.20
34815;DHT22;21030;53.912;15.214;2023-02-11T05:34:20;19.50;39.70
34815;DHT22;21030;53.912;15.214;2023-02-11T05:36:47;20.50;38.40
34815;DHT22;21030;53.912;15.214;2023-02-11T05:39:14;20.70;37.70
34815;DHT22;21030;53.912;15.214;2023-02-11T05:41:41;21.30;37.00
34815;DHT22;21030;53.912;15.214;2023-02-11T05:44:08;21.50;36.20
34815;DHT22;21030;53.912;15.214;2023-02-11T05:46:35;21.10;36.60
34815;DHT22;21030;53.912;15.214;2023-02-11T05:49:03;21.20;36.70
34815;DHT22;21030;53.912;15.214;2023-02-11T05:51:30;21.80;36.00
34815;DHT22;21030;53.912;15.214;2023-02-11T05:53:57;21.70;35.90
34815;DHT22;21030;53.912;15.214;2023-02-11T05:56:24;21.40;35.80
34815;DHT22;21030;53.912;15.214;2023-02-11T05:58:51;21.90;36.10
34815;DHT22;21030;53.912;15.214;2023-02-11T06:01:18;21.80;35.20
34815;DHT22;21030;53.912;15.214;2023-02-11T06:03:45;21.20;36.40
34815;DHT22;21030;53.912;15.214;2023-02-11T06:06:13;21.50;36.30
34815;DHT22;21030;53.912;15.214;2023-02-11T06:08:40;21.50;36.60
34815;DHT22;21030;53.912;15.214;2023-02-11T06:11:07;21.40;36.50
34815;DHT22;21030;53.912;15.214;2023-02-11T06:13:35;21.80;35.50
34815;DHT22;21030;53.912;15.214;2023-02-11T06:16:02;22.30;35.80
34815;DHT22;21030;53.912;15.214;2023-02-11T06:18:29;22.20;35.10
34815;DHT22;21030;53.912;15.214;2023-02-11T06:20:59;22.40;35.20
34815;DHT22;21030;53.912;15.214;2023-02-11T06:23:26;22.60;34.20
34815;DHT22;21030;53.912;15.214;2023-02-11T06:26:01;22.80;34.30
34815;DHT22;21030;53.912;15.214;2023-02-11T06:28:28;22.70;34.60
34815;DHT22;21030;53.912;15.214;2023-02-11T06:30:58;22.60;34.50
34815;DHT22;21030;53.912;15.214;2023-02-11T06:33:25;22.90;34.60
34815;DHT22;21030;53.912;15.214;2023-02-11T06:35:52;21.80;35.60
34815;DHT22;21030;53.912;15.214;2023-02-11T06:38:19;22.20;35.90
34815;DHT22;21030;53.912;15.214;2023-02-11T06:40:47;22.50;35.40
34815;DHT22;21030;53.912;15.214;2023-02-11T06:43:15;23.00;34.20
34815;DHT22;21030;53.912;15.214;2023-02-11T06:45:43;22.80;34.00
34815;DHT22;21030;53.912;15.214;2023-02-11T06:48:10;22.40;35.10
34815;DHT22;21030;53.912;15.214;2023-02-11T06:50:37;22.70;35.30
34815;DHT22;21030;53.912;15.214;2023-02-11T06:53:04;23.00;34.40
34815;DHT22;21030;53.912;15.214;2023-02-11T06:55:34;22.30;35.10
34815;DHT22;21030;53.912;15.214;2023-02-11T06:58:01;22.00;36.40
34815;DHT22;21030;53.912;15.214;2023-02-11T07:00:28;22.10;36.10
34815;DHT22;21030;53.912;15.214;2023-02-11T07:02:55;22.40;35.90
34815;DHT22;21030;53.912;15.214;2023-02-11T07:05:23;22.30;36.10
34815;DHT22;21030;53.912;15.214;2023-02-11T07:07:50;22.70;35.60
34815;DHT22;21030;53.912;15.214;2023-02-11T07:10:17;23.30;35.10
34815;DHT22;21030;53.912;15.214;2023-02-11T07:12:44;22.00;36.30
34815;DHT22;21030;53.912;15.214;2023-02-11T07:15:11;21.90;37.10
34815;DHT22;21030;53.912;15.214;2023-02-11T07:17:38;21.60;37.80
34815;DHT22;21030;53.912;15.214;2023-02-11T07:20:05;21.50;38.00
34815;DHT22;21030;53.912;15.214;2023-02-11T07:22:33;22.40;36.90
34815;DHT22;21030;53.912;15.214;2023-02-11T07:25:00;22.50;36.80
34815;DHT22;21030;53.912;15.214;2023-02-11T07:27:27;22.50;36.10
34815;DHT22;21030;53.912;15.214;2023-02-11T07:29:54;23.20;35.30
34815;DHT22;21030;53.912;15.214;2023-02-11T07:32:21;23.00;35.20
34815;DHT22;21030;53.912;15.214;2023-02-11T07:34:49;23.10;35.10
34815;DHT22;21030;53.912;15.214;2023-02-11T07:37:16;23.70;34.90
34815;DHT22;21030;53.912;15.214;2023-02-11T07:39:43;24.00;34.00
34815;DHT22;21030;53.912;15.214;2023-02-11T07:42:10;23.20;34.40
34815;DHT22;21030;53.912;15.214;2023-02-11T07:44:37;23.10;35.30
34815;DHT22;21030;53.912;15.214;2023-02-11T07:47:04;23.40;35.30
34815;DHT22;21030;53.912;15.214;2023-02-11T07:49:31;23.30;35.30
34815;DHT22;21030;53.912;15.214;2023-02-11T07:51:58;23.00;35.70
34815;DHT22;21030;53.912;15.214;2023-02-11T07:54:25;23.20;36.00
34815;DHT22;21030;53.912;15.214;2023-02-11T07:56:52;24.00;34.10
34815;DHT22;21030;53.912;15.214;2023-02-11T07:59:19;23.10;35.40
34815;DHT22;21030;53.912;15.214;2023-02-11T08:01:47;23.80;34.60
34815;DHT22;21030;53.912;15.214;2023-02-11T08:04:14;23.90;33.80
34815;DHT22;21030;53.912;15.214;2023-02-11T08:06:42;22.60;35.30
34815;DHT22;21030;53.912;15.214;2023-02-11T08:09:13;23.10;35.80
34815;DHT22;21030;53.912;15.214;2023-02-11T08:11:42;22.80;35.50
34815;DHT22;21030;53.912;15.214;2023-02-11T08:14:09;22.80;36.20
34815;DHT22;21030;53.912;15.214;2023-02-11T08:16:37;23.40;35.00
34815;DHT22;21030;53.912;15.214;2023-02-11T08:19:09;24.10;34.40
34815;DHT22;21030;53.912;15.214;2023-02-11T08:21:37;23.90;33.90
34815;DHT22;21030;53.912;15.214;2023-02-11T08:24:05;23.60;34.80
34815;DHT22;21030;53.912;15.214;2023-02-11T08:26:33;24.10;33.80
34815;DHT22;21030;53.912;15.214;2023-02-11T08:29:06;24.30;33.50
34815;DHT22;21030;53.912;15.214;2023-02-11T08:31:36;23.30;35.10
34815;DHT22;21030;53.912;15.214;2023-02-11T08:34:04;24.40;33.70
34815;DHT22;21030;53.912;15.214;2023-02-11T08:36:33;24.10;33.70
34815;DHT22;21030;53.912;15.214;2023-02-11T08:39:08;24.40;33.80
34815;DHT22;21030;53.912;15.214;2023-02-11T08:41:50;23.70;34.10
34815;DHT22;21030;53.912;15.214;2023-02-11T08:44:19;23.50;35.20
34815;DHT22;21030;53.912;15.214;2023-02-11T08:46:47;24.00;34.50
34815;DHT22;21030;53.912;15.214;2023-02-11T08:49:14;23.60;34.40
34815;DHT22;21030;53.912;15.214;2023-02-11T08:51:42;23.50;35.60
34815;DHT22;21030;53.912;15.214;2023-02-11T08:54:09;23.40;35.50
34815;DHT22;21030;53.912;15.214;2023-02-11T08:56:37;23.50;35.30
34815;DHT22;21030;53.912;15.214;2023-02-11T08:59:05;24.20;34.70
34815;DHT22;21030;53.912;15.214;2023-02-11T09:01:33;24.00;34.50
34815;DHT22;21030;53.912;15.214;2023-02-11T09:04:01;25.10;33.50
34815;DHT22;21030;53.912;15.214;2023-02-11T09:06:28;24.80;33.40
34815;DHT22;21030;53.912;15.214;2023-02-11T09:08:56;26.40;32.20
34815;DHT22;21030;53.912;15.214;2023-02-11T09:11:32;27.00;30.40
34815;DHT22;21030;53.912;15.214;2023-02-11T09:14:00;26.30;30.70
34815;DHT22;21030;53.912;15.214;2023-02-11T09:16:30;25.70;31.70
34815;DHT22;21030;53.912;15.214;2023-02-11T09:18:59;25.50;33.10
34815;DHT22;21030;53.912;15.214;2023-02-11T09:21:27;25.40;32.90
34815;DHT22;21030;53.912;15.214;2023-02-11T09:23:55;24.60;33.70
34815;DHT22;21030;53.912;15.214;2023-02-11T09:26:26;25.10;33.10
34815;DHT22;21030;53.912;15.214;2023-02-11T09:28:54;26.60;31.90
34815;DHT22;21030;53.912;15.214;2023-02-11T09:31:22;27.60;30.60
34815;DHT22;21030;53.912;15.214;2023-02-11T09:33:57;26.90;30.30
34815;DHT22;21030;53.912;15.214;2023-02-11T09:36:30;26.20;31.40
34815;DHT22;21030;53.912;15.214;2023-02-11T09:39:00;26.20;31.80
34815;DHT22;21030;53.912;15.214;2023-02-11T09:42:02;26.70;30.90
34815;DHT22;21030;53.912;15.214;2023-02-11T09:44:35;27.20;30.50
34815;DHT22;21030;53.912;15.214;2023-02-11T09:47:22;27.50;29.40
34815;DHT22;21030;53.912;15.214;2023-02-11T09:49:53;27.20;29.90
34815;DHT22;21030;53.912;15.214;2023-02-11T09:54:55;28.10;29.70
34815;DHT22;21030;53.912;15.214;2023-02-11T09:57:29;28.10;29.40
34815;DHT22;21030;53.912;15.214;2023-02-11T09:59:57;27.40;29.50
34815;DHT22;21030;53.912;15.214;2023-02-11T10:08:08;26.90;30.30
34815;DHT22;21030;53.912;15.214;2023-02-11T10:10:56;26.70;31.50
34815;DHT22;21030;53.912;15.214;2023-02-11T10:19:18;28.00;28.90
34815;DHT22;21030;53.912;15.214;2023-02-11T10:22:16;27.40;29.40
34815;DHT22;21030;53.912;15.214;2023-02-11T10:24:53;27.10;31.10
34815;DHT22;21030;53.912;15.214;2023-02-11T10:27:25;27.90;30.00
34815;DHT22;21030;53.912;15.214;2023-02-11T10:30:00;28.20;29.30
34815;DHT22;21030;53.912;15.214;2023-02-11T10:32:51;27.20;29.90
34815;DHT22;21030;53.912;15.214;2023-02-11T10:35:21;27.80;29.60
34815;DHT22;21030;53.912;15.214;2023-02-11T10:37:49;27.20;29.90
34815;DHT22;21030;53.912;15.214;2023-02-11T10:40:20;27.20;30.00
34815;DHT22;21030;53.912;15.214;2023-02-11T10:42:50;27.10;30.50
34815;DHT22;21030;53.912;15.214;2023-02-11T10:45:24;27.60;30.00
34815;DHT22;21030;53.912;15.214;2023-02-11T10:47:51;27.90;29.30
34815;DHT22;21030;53.912;15.214;2023-02-11T10:50:28;27.80;29.20
34815;DHT22;21030;53.912;15.214;2023-02-11T10:55:38;26.90;30.00
34815;DHT22;21030;53.912;15.214;2023-02-11T10:58:27;26.30;30.90
34815;DHT22;21030;53.912;15.214;2023-02-11T11:00:56;26.20;31.50
34815;DHT22;21030;53.912;15.214;2023-02-11T11:03:28;26.70;30.70
34815;DHT22;21030;53.912;15.214;2023-02-11T11:05:58;26.10;30.60
34815;DHT22;21030;53.912;15.214;2023-02-11T11:08:47;25.70;31.70
34815;DHT22;21030;53.912;15.214;2023-02-11T11:11:20;25.30;31.80
34815;DHT22;21030;53.912;15.214;2023-02-11T11:13:59;25.70;32.10
34815;DHT22;21030;53.912;15.214;2023-02-11T11:16:28;25.10;32.20
34815;DHT22;21030;53.912;15.214;2023-02-11T11:19:21;24.80;33.10
34815;DHT22;21030;53.912;15.214;2023-02-11T11:21:52;25.60;32.20
34815;DHT22;21030;53.912;15.214;2023-02-11T11:26:54;25.80;32.70
34815;DHT22;21030;53.912;15.214;2023-02-11T11:29:28;26.20;31.40
34815;DHT22;21030;53.912;15.214;2023-02-11T11:32:01;26.50;30.10
34815;DHT22;21030;53.912;15.214;2023-02-11T11:34:32;27.00;30.40
34815;DHT22;21030;53.912;15.214;2023-02-11T11:40:31;27.30;29.80
34815;DHT22;21030;53.912;15.214;2023-02-11T11:45:57;26.60;30.40
34815;DHT22;21030;53.912;15.214;2023-02-11T11:48:29;27.50;29.80
34815;DHT22;21030;53.912;15.214;2023-02-11T11:51:04;27.10;29.60
34815;DHT22;21030;53.912;15.214;2023-02-11T11:56:25;26.80;29.70
34815;DHT22;21030;53.912;15.214;2023-02-11T11:58:52;26.60;30.00
34815;DHT22;21030;53.912;15.214;2023-02-11T12:04:56;26.10;30.50
34815;DHT22;21030;53.912;15.214;2023-02-11T12:10:09;26.70;29.80
34815;DHT22;21030;53.912;15.214;2023-02-11T12:18:39;26.50;30.10
34815;DHT22;21030;53.912;15.214;2023-02-11T12:27:13;27.60;29.50
34815;DHT22;21030;53.912;15.214;2023-02-11T12:32:43;26.80;29.80
34815;DHT22;21030;53.912;15.214;2023-02-11T12:35:27;26.30;30.00
34815;DHT22;21030;53.912;15.214;2023-02-11T12:41:35;26.60;30.40
34815;DHT22;21030;53.912;15.214;2023-02-11T12:44:58;26.40;30.10
34815;DHT22;21030;53.912;15.214;2023-02-11T12:47:33;26.20;30.60
34815;DHT22;21030;53.912;15.214;2023-02-11T12:55:29;26.60;30.10
34815;DHT22;21030;53.912;15.214;2023-02-11T12:57:59;25.70;30.80
34815;DHT22;21030;53.912;15.214;2023-02-11T13:05:51;26.60;30.20
34815;DHT22;21030;53.912;15.214;2023-02-11T13:10:53;27.20;29.20
34815;DHT22;21030;53.912;15.214;2023-02-11T13:15:58;26.60;30.00
34815;DHT22;21030;53.912;15.214;2023-02-11T13:26:56;27.70;29.20
34815;DHT22;21030;53.912;15.214;2023-02-11T13:30:02;27.80;29.20
34815;DHT22;21030;53.912;15.214;2023-02-11T13:35:38;28.20;28.40
34815;DHT22;21030;53.912;15.214;2023-02-11T13:40:44;28.10;28.40
34815;DHT22;21030;53.912;15.214;2023-02-11T13:43:37;28.30;28.70
34815;DHT22;21030;53.912;15.214;2023-02-11T13:46:06;27.70;28.90
34815;DHT22;21030;53.912;15.214;2023-02-11T13:48:37;28.50;28.70
34815;DHT22;21030;53.912;15.214;2023-02-11T13:51:08;29.00;28.20
34815;DHT22;21030;53.912;15.214;2023-02-11T13:53:55;28.40;28.20
34815;DHT22;21030;53.912;15.214;2023-02-11T13:56:30;27.90;28.40
34815;DHT22;21030;53.912;15.214;2023-02-11T13:59:03;28.30;28.20
34815;DHT22;21030;53.912;15.214;2023-02-11T14:10:58;29.70;26.80
34815;DHT22;21030;53.912;15.214;2023-02-11T14:13:30;30.10;26.80
34815;DHT22;21030;53.912;15.214;2023-02-11T14:16:14;29.80;26.90
34815;DHT22;21030;53.912;15.214;2023-02-11T14:18:57;29.20;27.00
34815;DHT22;21030;53.912;15.214;2023-02-11T14:26:46;29.20;27.30
34815;DHT22;21030;53.912;15.214;2023-02-11T14:38:38;29.40;26.70
34815;DHT22;21030;53.912;15.214;2023-02-11T14:41:12;29.50;27.00
34815;DHT22;21030;53.912;15.214;2023-02-11T14:43:45;30.00;27.10
34815;DHT22;21030;53.912;15.214;2023-02-11T14:46:18;29.20;27.20
34815;DHT22;21030;53.912;15.214;2023-02-11T14:48:49;30.10;27.10
34815;DHT22;21030;53.912;15.214;2023-02-11T14:51:29;30.50;26.40
34815;DHT22;21030;53.912;15.214;2023-02-11T14:54:10;30.10;26.00
34815;DHT22;21030;53.912;15.214;2023-02-11T14:56:41;29.60;26.90
34815;DHT22;21030;53.912;15.214;2023-02-11T14:59:19;29.80;26.70
34815;DHT22;21030;53.912;15.214;2023-02-11T15:01:51;30.70;26.20
34815;DHT22;21030;53.912;15.214;2023-02-11T15:04:23;30.50;25.80
34815;DHT22;21030;53.912;15.214;2023-02-11T15:06:51;30.50;26.30
34815;DHT22;21030;53.912;15.214;2023-02-11T15:09:31;30.60;25.90
34815;DHT22;21030;53.912;15.214;2023-02-11T15:11:59;30.00;26.00
34815;DHT22;21030;53.912;15.214;2023-02-11T15:14:32;30.90;26.40
34815;DHT22;21030;53.912;15.214;2023-02-11T15:17:02;30.80;25.50
34815;DHT22;21030;53.912;15.214;2023-02-11T15:19:34;30.10;26.10
34815;DHT22;21030;53.912;15.214;2023-02-11T15:22:07;30.40;26.10
34815;DHT22;21030;53.912;15.214;2023-02-11T15:24:41;31.30;25.70
34815;DHT22;21030;53.912;15.214;2023-02-11T15:27:12;30.90;25.60
34815;DHT22;21030;53.912;15.214;2023-02-11T15:29:46;31.20;25.40
34815;DHT22;21030;53.912;15.214;2023-02-11T15:32:24;31.00;25.50
34815;DHT22;21030;53.912;15.214;2023-02-11T15:34:53;30.50;25.60
34815;DHT22;21030;53.912;15.214;2023-02-11T15:39:49;30.30;26.10
34815;DHT22;21030;53.912;15.214;2023-02-11T15:42:21;31.10;25.80
34815;DHT22;21030;53.912;15.214;2023-02-11T15:45:09;31.30;25.20
34815;DHT22;21030;53.912;15.214;2023-02-11T15:47:38;30.50;25.50
34815;DHT22;21030;53.912;15.214;2023-02-11T15:50:19;30.40;26.00
34815;DHT22;21030;53.912;15.214;2023-02-11T15:52:48;29.70;26.40
34815;DHT22;21030;53.912;15.214;2023-02-11T15:55:16;29.70;26.50
34815;DHT22;21030;53.912;15.214;2023-02-11T15:57:55;29.50;26.20
34815;DHT22;21030;53.912;15.214;2023-02-11T16:00:33;29.00;27.10
34815;DHT22;21030;53.912;15.214;2023-02-11T16:03:02;29.20;27.00
34815;DHT22;21030;53.912;15.214;2023-02-11T16:05:36;30.00;26.40
34815;DHT22;21030;53.912;15.214;2023-02-11T16:08:24;29.70;26.60
34815;DHT22;21030;53.912;15.214;2023-02-11T16:11:00;29.40;26.60
34815;DHT22;21030;53.912;15.214;2023-02-11T16:13:30;29.70;26.70
34815;DHT22;21030;53.912;15.214;2023-02-11T16:16:03;29.40;26.60
34815;DHT22;21030;53.912;15.214;2023-02-11T16:18:33;30.40;26.70
34815;DHT22;21030;53.912;15.214;2023-02-11T16:21:12;29.30;26.50
34815;DHT22;21030;53.912;15.214;2023-02-11T16:23:48;28.60;27.10
34815;DHT22;21030;53.912;15.214;2023-02-11T16:26:32;28.40;27.60
34815;DHT22;21030;53.912;15.214;2023-02-11T16:31:39;28.40;27.50
34815;DHT22;21030;53.912;15.214;2023-02-11T16:34:16;28.90;27.50
34815;DHT22;21030;53.912;15.214;2023-02-11T16:36:45;28.30;27.30
34815;DHT22;21030;53.912;15.214;2023-02-11T16:39:13;28.70;27.20
34815;DHT22;21030;53.912;15.214;2023-02-11T16:41:40;28.80;27.30
34815;DHT22;21030;53.912;15.214;2023-02-11T16:44:08;30.00;26.50
34815;DHT22;21030;53.912;15.214;2023-02-11T16:46:35;29.60;26.50
34815;DHT22;21030;53.912;15.214;2023-02-11T16:49:09;29.10;26.50
34815;DHT22;21030;53.912;15.214;2023-02-11T16:51:39;29.10;26.90
34815;DHT22;21030;53.912;15.214;2023-02-11T16:54:12;29.30;26.70
34815;DHT22;21030;53.912;15.214;2023-02-11T16:56:41;29.00;26.80
34815;DHT22;21030;53.912;15.214;2023-02-11T16:59:09;29.10;26.60
34815;DHT22;21030;53.912;15.214;2023-02-11T17:01:38;29.10;27.70
34815;DHT22;21030;53.912;15.214;2023-02-11T17:04:06;29.00;26.90
34815;DHT22;21030;53.912;15.214;2023-02-11T17:06:36;29.30;27.00
34815;DHT22;21030;53.912;15.214;2023-02-11T17:09:03;29.30;26.40
34815;DHT22;21030;53.912;15.214;2023-02-11T17:11:32;30.00;26.30
34815;DHT22;21030;53.912;15.214;2023-02-11T17:13:59;30.10;25.90
34815;DHT22;21030;53.912;15.214;2023-02-11T17:16:28;29.60;26.30
34815;DHT22;21030;53.912;15.214;2023-02-11T17:18:56;30.90;25.90
34815;DHT22;21030;53.912;15.214;2023-02-11T17:21:23;31.70;25.00
34815;DHT22;21030;53.912;15.214;2023-02-11T17:23:55;31.90;24.70
34815;DHT22;21030;53.912;15.214;2023-02-11T17:26:22;32.40;24.70
34815;DHT22;21030;53.912;15.214;2023-02-11T17:28:49;32.60;24.00
34815;DHT22;21030;53.912;15.214;2023-02-11T17:31:16;32.40;23.80
34815;DHT22;21030;53.912;15.214;2023-02-11T17:33:44;32.50;23.90
34815;DHT22;21030;53.912;15.214;2023-02-11T17:36:11;32.70;23.80
34815;DHT22;21030;53.912;15.214;2023-02-11T17:38:38;32.50;23.80
34815;DHT22;21030;53.912;15.214;2023-02-11T17:41:05;32.60;23.60
34815;DHT22;21030;53.912;15.214;2023-02-11T17:43:36;32.40;23.80
34815;DHT22;21030;53.912;15.214;2023-02-11T17:46:07;32.10;24.00
34815;DHT22;21030;53.912;15.214;2023-02-11T17:48:38;32.10;24.00
34815;DHT22;21030;53.912;15.214;2023-02-11T17:51:16;32.40;23.90
34815;DHT22;21030;53.912;15.214;2023-02-11T17:53:46;32.40;23.50
34815;DHT22;21030;53.912;15.214;2023-02-11T17:56:13;32.00;23.90
34815;DHT22;21030;53.912;15.214;2023-02-11T17:58:40;32.10;24.00
34815;DHT22;21030;53.912;15.214;2023-02-11T18:01:07;32.30;23.70
34815;DHT22;21030;53.912;15.214;2023-02-11T18:03:35;32.50;23.60
34815;DHT22;21030;53.912;15.214;2023-02-11T18:06:03;32.50;23.60
34815;DHT22;21030;53.912;15.214;2023-02-11T18:08:32;31.90;23.50